createdAt,value
2022-12-22T00:00:06.504Z,35.80
2022-12-22T00:01:07.573Z,23.80
2022-12-22T00:02:07.962Z,31.20
2022-12-22T00:03:08.837Z,33.50
2022-12-22T00:04:09.690Z,31.40
2022-12-22T00:05:10.369Z,34.40
2022-12-22T00:06:11.106Z,27.90
2022-12-22T00:07:11.802Z,28.10
2022-12-22T00:08:12.509Z,23.70
2022-12-22T00:09:13.209Z,28.10
2022-12-22T00:10:13.916Z,30.00
2022-12-22T00:11:14.653Z,33.90
2022-12-22T00:12:15.343Z,21.30
2022-12-22T00:13:16.052Z,23.70
2022-12-22T00:14:16.762Z,31.90
2022-12-22T00:15:17.462Z,27.40
2022-12-22T00:16:18.249Z,35.10
2022-12-22T00:17:18.898Z,23.90
2022-12-22T00:18:19.605Z,31.10
2022-12-22T00:19:20.318Z,29.10
2022-12-22T00:20:21.023Z,21.20
2022-12-22T00:21:21.764Z,23.90
2022-12-22T00:22:22.445Z,27.10
2022-12-22T00:23:23.154Z,30.60
2022-12-22T00:24:23.865Z,21.10
2022-12-22T00:25:24.602Z,25.10
2022-12-22T00:26:25.603Z,35.10
2022-12-22T00:27:25.786Z,36.00
2022-12-22T00:28:26.499Z,32.60
2022-12-22T00:29:27.212Z,31.40
2022-12-22T00:30:27.994Z,27.20
2022-12-22T00:31:28.704Z,31.20
2022-12-22T00:32:29.359Z,27.00
2022-12-22T00:33:30.067Z,29.40
2022-12-22T00:34:32.589Z,25.60
2022-12-22T00:35:31.571Z,31.90
2022-12-22T00:36:32.615Z,26.00
2022-12-22T00:37:33.247Z,29.70
2022-12-22T00:38:33.974Z,23.40
2022-12-22T00:39:34.664Z,20.70
2022-12-22T00:40:35.372Z,21.90
2022-12-22T00:41:36.632Z,29.20
2022-12-22T00:42:36.811Z,24.40
2022-12-22T00:43:37.525Z,26.10
2022-12-22T00:44:38.244Z,18.90
2022-12-22T00:45:39.006Z,21.50
2022-12-22T00:46:40.108Z,16.10
2022-12-22T00:47:40.311Z,21.80
2022-12-22T00:48:41.023Z,17.80
2022-12-22T00:49:41.736Z,12.60
2022-12-22T00:50:42.426Z,18.30
2022-12-22T00:51:43.597Z,13.90
2022-12-22T00:52:43.760Z,20.40
2022-12-22T00:53:44.470Z,16.70
2022-12-22T00:54:45.173Z,16.20
2022-12-22T00:55:45.889Z,25.60
2022-12-22T00:56:46.623Z,15.80
2022-12-22T00:57:47.302Z,16.80
2022-12-22T00:58:48.023Z,19.80
2022-12-22T00:59:48.718Z,18.10
2022-12-22T01:00:49.430Z,16.70
2022-12-22T01:01:50.379Z,20.60
2022-12-22T01:02:51.267Z,22.20
2022-12-22T01:03:52.070Z,15.20
2022-12-22T01:04:52.737Z,24.60
2022-12-22T01:05:53.441Z,13.10
2022-12-22T01:06:54.610Z,15.10
2022-12-22T01:07:54.796Z,14.10
2022-12-22T01:08:55.517Z,15.00
2022-12-22T01:09:56.230Z,15.10
2022-12-22T01:10:56.929Z,12.40
2022-12-22T01:11:57.678Z,11.90
2022-12-22T01:12:58.356Z,17.40
2022-12-22T01:13:59.064Z,12.70
2022-12-22T01:14:59.790Z,17.00
2022-12-22T01:16:00.604Z,11.90
2022-12-22T01:17:01.586Z,12.80
2022-12-22T01:18:01.794Z,12.80
2022-12-22T01:19:02.500Z,10.90
2022-12-22T01:20:03.212Z,13.10
2022-12-22T01:21:03.933Z,12.10
2022-12-22T01:22:05.111Z,18.60
2022-12-22T01:23:05.297Z,13.70
2022-12-22T01:24:06.003Z,15.10
2022-12-22T01:25:06.722Z,14.20
2022-12-22T01:26:07.420Z,10.80
2022-12-22T01:27:08.607Z,13.90
2022-12-22T01:28:08.793Z,14.60
2022-12-22T01:29:09.503Z,11.80
2022-12-22T01:30:10.215Z,12.00
2022-12-22T01:31:11.035Z,9.70
2022-12-22T01:32:11.733Z,11.30
2022-12-22T01:33:12.430Z,12.10
2022-12-22T01:34:13.137Z,9.90
2022-12-22T01:35:13.854Z,10.20
2022-12-22T01:36:14.555Z,9.20
2022-12-22T01:37:15.621Z,12.00
2022-12-22T01:38:15.786Z,10.50
2022-12-22T01:39:16.493Z,13.10
2022-12-22T01:40:17.203Z,7.80
2022-12-22T01:41:17.921Z,7.00
2022-12-22T01:42:18.733Z,8.80
2022-12-22T01:43:19.420Z,7.50
2022-12-22T01:44:20.123Z,6.30
2022-12-22T01:45:20.830Z,6.70
2022-12-22T01:46:21.569Z,6.40
2022-12-22T01:47:22.297Z,6.60
2022-12-22T01:48:23.007Z,8.60
2022-12-22T01:49:23.718Z,9.80
2022-12-22T01:50:24.422Z,11.30
2022-12-22T01:51:25.155Z,6.40
2022-12-22T01:52:25.873Z,11.00
2022-12-22T01:53:26.519Z,7.90
2022-12-22T01:54:27.228Z,7.50
2022-12-22T01:55:27.940Z,7.00
2022-12-22T01:56:28.647Z,8.10
2022-12-22T01:57:29.607Z,9.00
2022-12-22T01:58:30.294Z,10.50
2022-12-22T01:59:31.050Z,8.20
2022-12-22T02:00:31.739Z,9.40
2022-12-22T02:01:32.644Z,6.90
2022-12-22T02:02:33.830Z,14.70
2022-12-22T02:03:34.172Z,8.30
2022-12-22T02:04:34.876Z,9.70
2022-12-22T02:05:35.582Z,12.30
2022-12-22T02:06:36.297Z,11.30
2022-12-22T02:07:37.121Z,13.50
2022-12-22T02:08:37.807Z,8.10
2022-12-22T02:09:38.508Z,9.90
2022-12-22T02:10:39.225Z,6.80
2022-12-22T02:11:39.930Z,13.60
2022-12-22T02:12:40.666Z,6.60
2022-12-22T02:13:41.352Z,10.70
2022-12-22T02:14:42.057Z,8.80
2022-12-22T02:15:42.786Z,7.00
2022-12-22T02:16:43.471Z,7.20
2022-12-22T02:17:44.183Z,10.60
2022-12-22T02:18:44.893Z,6.10
2022-12-22T02:19:45.600Z,6.20
2022-12-22T02:20:46.347Z,6.20
2022-12-22T02:21:47.033Z,7.20
2022-12-22T02:22:48.135Z,7.40
2022-12-22T02:23:48.325Z,6.20
2022-12-22T02:24:49.033Z,6.60
2022-12-22T02:25:49.739Z,6.40
2022-12-22T02:26:50.449Z,5.00
2022-12-22T02:27:51.193Z,5.90
2022-12-22T02:28:51.867Z,5.30
2022-12-22T02:29:52.571Z,8.20
2022-12-22T02:30:53.291Z,8.60
2022-12-22T02:31:53.990Z,5.70
2022-12-22T02:32:54.702Z,8.00
2022-12-22T02:33:55.428Z,6.20
2022-12-22T02:34:56.113Z,5.90
2022-12-22T02:35:56.819Z,5.40
2022-12-22T02:36:57.532Z,5.00
2022-12-22T02:37:58.296Z,5.90
2022-12-22T02:38:58.998Z,7.80
2022-12-22T02:39:59.698Z,5.60
2022-12-22T02:41:00.400Z,8.00
2022-12-22T02:42:01.123Z,7.20
2022-12-22T02:43:01.880Z,5.30
2022-12-22T02:44:02.545Z,5.10
2022-12-22T02:45:03.251Z,5.60
2022-12-22T02:46:04.099Z,13.10
2022-12-22T02:47:05.039Z,19.60
2022-12-22T02:48:06.098Z,7.80
2022-12-22T02:49:06.330Z,9.80
2022-12-22T02:50:07.034Z,13.20
2022-12-22T02:51:07.744Z,8.40
2022-12-22T02:52:08.449Z,5.40
2022-12-22T02:53:09.188Z,9.10
2022-12-22T02:54:09.858Z,11.30
2022-12-22T02:55:10.561Z,9.70
2022-12-22T02:56:11.265Z,6.90
2022-12-22T02:57:12.063Z,8.40
2022-12-22T02:58:12.798Z,7.80
2022-12-22T02:59:13.484Z,7.30
2022-12-22T03:00:14.185Z,6.00
2022-12-22T03:01:14.911Z,7.50
2022-12-22T03:02:15.778Z,12.60
2022-12-22T03:03:16.720Z,8.10
2022-12-22T03:04:17.393Z,8.30
2022-12-22T03:05:18.098Z,7.20
2022-12-22T03:06:18.809Z,4.90
2022-12-22T03:07:19.518Z,9.20
2022-12-22T03:08:20.626Z,4.90
2022-12-22T03:09:20.785Z,4.70
2022-12-22T03:10:21.492Z,4.80
2022-12-22T03:11:22.204Z,4.40
2022-12-22T03:12:22.913Z,4.10
2022-12-22T03:13:23.673Z,6.50
2022-12-22T03:14:24.340Z,3.70
2022-12-22T03:15:25.052Z,4.00
2022-12-22T03:16:25.874Z,3.80
2022-12-22T03:17:26.583Z,4.10
2022-12-22T03:18:27.593Z,4.30
2022-12-22T03:19:27.802Z,4.10
2022-12-22T03:20:28.511Z,3.80
2022-12-22T03:21:29.218Z,4.20
2022-12-22T03:22:30.017Z,7.70
2022-12-22T03:23:31.140Z,8.60
2022-12-22T03:24:31.319Z,4.00
2022-12-22T03:25:32.024Z,5.00
2022-12-22T03:26:32.731Z,4.10
2022-12-22T03:27:33.443Z,5.30
2022-12-22T03:28:34.619Z,4.80
2022-12-22T03:29:34.805Z,3.90
2022-12-22T03:30:35.540Z,3.30
2022-12-22T03:31:36.281Z,4.20
2022-12-22T03:32:36.924Z,3.60
2022-12-22T03:33:38.103Z,3.50
2022-12-22T03:34:38.300Z,3.60
2022-12-22T03:35:39.011Z,4.30
2022-12-22T03:36:39.750Z,6.30
2022-12-22T03:37:40.427Z,3.80
2022-12-22T03:38:41.616Z,4.10
2022-12-22T03:39:41.790Z,3.70
2022-12-22T03:40:44.482Z,4.40
2022-12-22T03:41:43.301Z,4.20
2022-12-22T03:42:44.012Z,3.90
2022-12-22T03:43:45.169Z,3.40
2022-12-22T03:44:45.332Z,3.40
2022-12-22T03:45:46.179Z,4.10
2022-12-22T03:46:46.943Z,5.80
2022-12-22T03:47:47.610Z,3.80
2022-12-22T03:48:48.321Z,4.00
2022-12-22T03:49:49.029Z,3.60
2022-12-22T03:50:49.735Z,4.00
2022-12-22T03:51:50.455Z,3.70
2022-12-22T03:52:51.164Z,5.00
2022-12-22T03:53:51.884Z,3.80
2022-12-22T03:54:52.569Z,3.90
2022-12-22T03:55:53.279Z,7.50
2022-12-22T03:56:53.983Z,10.30
2022-12-22T03:57:54.691Z,7.50
2022-12-22T03:58:55.624Z,3.60
2022-12-22T03:59:56.316Z,6.50
2022-12-22T04:00:57.147Z,5.50
2022-12-22T04:01:58.042Z,3.70
2022-12-22T04:02:58.998Z,8.20
2022-12-22T04:04:00.111Z,4.30
2022-12-22T04:05:00.309Z,5.60
2022-12-22T04:06:01.041Z,3.70
2022-12-22T04:07:01.726Z,3.50
2022-12-22T04:08:02.432Z,3.50
2022-12-22T04:09:03.167Z,4.20
2022-12-22T04:10:03.858Z,3.50
2022-12-22T04:11:04.580Z,6.30
2022-12-22T04:12:05.264Z,3.30
2022-12-22T04:13:05.979Z,4.70
2022-12-22T04:14:07.136Z,5.20
2022-12-22T04:15:07.311Z,3.00
2022-12-22T04:16:08.041Z,3.10
2022-12-22T04:17:08.760Z,8.80
2022-12-22T04:18:09.462Z,2.90
2022-12-22T04:19:10.612Z,5.20
2022-12-22T04:20:10.820Z,2.90
2022-12-22T04:21:11.516Z,3.00
2022-12-22T04:22:12.231Z,2.80
2022-12-22T04:23:12.937Z,3.00
2022-12-22T04:24:14.166Z,2.50
2022-12-22T04:25:14.307Z,3.40
2022-12-22T04:26:15.013Z,2.70
2022-12-22T04:27:15.724Z,3.00
2022-12-22T04:28:16.500Z,3.00
2022-12-22T04:29:17.643Z,2.70
2022-12-22T04:30:17.821Z,4.50
2022-12-22T04:31:18.623Z,5.90
2022-12-22T04:32:19.478Z,2.90
2022-12-22T04:33:20.154Z,2.90
2022-12-22T04:34:20.875Z,2.90
2022-12-22T04:35:21.584Z,2.80
2022-12-22T04:36:22.304Z,3.50
2022-12-22T04:37:23.011Z,11.80
2022-12-22T04:38:23.715Z,2.90
2022-12-22T04:39:24.521Z,2.80
2022-12-22T04:40:25.153Z,3.00
2022-12-22T04:41:25.852Z,3.00
2022-12-22T04:42:26.564Z,2.80
2022-12-22T04:43:27.445Z,6.60
2022-12-22T04:44:27.984Z,2.60
2022-12-22T04:45:28.729Z,3.40
2022-12-22T04:46:29.498Z,2.90
2022-12-22T04:47:30.204Z,2.90
2022-12-22T04:48:30.912Z,3.20
2022-12-22T04:49:32.113Z,2.90
2022-12-22T04:50:32.308Z,4.20
2022-12-22T04:51:33.013Z,2.70
2022-12-22T04:52:33.718Z,2.70
2022-12-22T04:53:34.461Z,2.80
2022-12-22T04:54:35.256Z,4.20
2022-12-22T04:55:35.894Z,3.40
2022-12-22T04:56:36.599Z,3.20
2022-12-22T04:57:40.725Z,2.90
2022-12-22T04:58:37.863Z,2.80
2022-12-22T04:59:38.630Z,2.80
2022-12-22T05:00:39.310Z,4.90
2022-12-22T05:01:40.270Z,2.70
2022-12-22T05:02:40.814Z,5.60
2022-12-22T05:03:41.175Z,3.30
2022-12-22T05:04:42.114Z,3.60
2022-12-22T05:05:42.818Z,3.20
2022-12-22T05:06:43.527Z,4.00
2022-12-22T05:07:44.235Z,3.10
2022-12-22T05:08:44.944Z,5.30
2022-12-22T05:09:46.132Z,4.90
2022-12-22T05:10:46.323Z,3.20
2022-12-22T05:11:47.027Z,3.00
2022-12-22T05:12:47.738Z,7.60
2022-12-22T05:13:48.453Z,4.40
2022-12-22T05:14:49.646Z,3.50
2022-12-22T05:15:49.816Z,8.80
2022-12-22T05:16:50.621Z,6.70
2022-12-22T05:17:51.268Z,2.70
2022-12-22T05:18:51.974Z,2.90
2022-12-22T05:19:53.106Z,2.70
2022-12-22T05:20:53.314Z,2.90
2022-12-22T05:21:54.041Z,3.80
2022-12-22T05:22:54.752Z,5.30
2022-12-22T05:23:55.461Z,3.10
2022-12-22T05:24:56.633Z,4.20
2022-12-22T05:25:56.779Z,7.80
2022-12-22T05:26:57.547Z,5.90
2022-12-22T05:27:58.268Z,10.60
2022-12-22T05:28:58.955Z,10.20
2022-12-22T05:30:00.162Z,7.60
2022-12-22T05:31:00.353Z,10.70
2022-12-22T05:32:01.026Z,10.70
2022-12-22T05:33:01.735Z,9.60
2022-12-22T05:34:02.445Z,5.10
2022-12-22T05:35:03.616Z,8.70
2022-12-22T05:36:03.852Z,24.80
2022-12-22T05:37:04.536Z,6.20
2022-12-22T05:38:05.257Z,7.50
2022-12-22T05:39:05.954Z,5.10
2022-12-22T05:40:07.129Z,16.80
2022-12-22T05:41:07.303Z,9.30
2022-12-22T05:42:08.031Z,8.60
2022-12-22T05:43:08.740Z,6.10
2022-12-22T05:44:09.443Z,4.20
2022-12-22T05:45:10.648Z,3.50
2022-12-22T05:46:10.916Z,3.70
2022-12-22T05:47:11.596Z,3.60
2022-12-22T05:48:12.320Z,3.00
2022-12-22T05:49:13.027Z,3.10
2022-12-22T05:50:14.111Z,21.50
2022-12-22T05:51:14.316Z,2.80
2022-12-22T05:52:15.050Z,2.90
2022-12-22T05:53:15.749Z,3.60
2022-12-22T05:54:16.460Z,8.80
2022-12-22T05:55:17.635Z,2.80
2022-12-22T05:56:17.772Z,4.10
2022-12-22T05:57:18.485Z,4.40
2022-12-22T05:58:19.190Z,8.20
2022-12-22T05:59:19.913Z,5.30
2022-12-22T06:00:20.645Z,18.50
2022-12-22T06:01:21.333Z,3.50
2022-12-22T06:02:22.244Z,15.30
2022-12-22T06:03:22.658Z,14.00
2022-12-22T06:04:23.538Z,11.90
2022-12-22T06:05:24.313Z,14.10
2022-12-22T06:06:25.025Z,14.60
2022-12-22T06:07:25.717Z,22.00
2022-12-22T06:08:26.450Z,93.60
2022-12-22T06:09:27.136Z,30.00
2022-12-22T06:10:27.868Z,13.50
2022-12-22T06:11:28.556Z,6.80
2022-12-22T06:12:29.248Z,11.00
2022-12-22T06:13:29.951Z,4.30
2022-12-22T06:14:30.658Z,16.60
2022-12-22T06:15:31.642Z,5.10
2022-12-22T06:16:32.296Z,20.00
2022-12-22T06:17:32.978Z,24.80
2022-12-22T06:18:33.680Z,6.60
2022-12-22T06:19:34.405Z,18.50
2022-12-22T06:20:35.617Z,54.60
2022-12-22T06:21:35.815Z,59.20
2022-12-22T06:22:36.519Z,29.90
2022-12-22T06:23:37.261Z,23.70
2022-12-22T06:24:37.925Z,44.50
2022-12-22T06:25:39.136Z,23.20
2022-12-22T06:26:39.346Z,19.30
2022-12-22T06:27:40.052Z,18.80
2022-12-22T06:28:40.759Z,19.60
2022-12-22T06:29:41.468Z,13.70
2022-12-22T06:30:42.205Z,13.90
2022-12-22T06:31:42.936Z,13.80
2022-12-22T06:32:43.584Z,19.70
2022-12-22T06:33:44.288Z,26.60
2022-12-22T06:34:44.992Z,24.60
2022-12-22T06:35:46.122Z,31.60
2022-12-22T06:36:46.325Z,18.70
2022-12-22T06:37:47.035Z,47.50
2022-12-22T06:38:47.744Z,12.60
2022-12-22T06:39:48.452Z,11.80
2022-12-22T06:40:49.669Z,21.70
2022-12-22T06:41:49.808Z,6.70
2022-12-22T06:42:50.514Z,13.70
2022-12-22T06:43:51.223Z,6.00
2022-12-22T06:44:51.924Z,12.80
2022-12-22T06:45:52.690Z,2.40
2022-12-22T06:46:53.477Z,4.10
2022-12-22T06:47:54.222Z,8.80
2022-12-22T06:48:54.926Z,4.90
2022-12-22T06:49:55.636Z,12.50
2022-12-22T06:50:56.613Z,3.70
2022-12-22T06:51:57.327Z,4.90
2022-12-22T06:52:58.035Z,9.10
2022-12-22T06:53:58.741Z,3.20
2022-12-22T06:54:59.446Z,5.40
2022-12-22T06:56:00.179Z,11.00
2022-12-22T06:57:00.861Z,4.60
2022-12-22T06:58:01.569Z,6.90
2022-12-22T06:59:02.282Z,10.30
2022-12-22T07:00:03.000Z,7.40
2022-12-22T07:01:04.139Z,2.20
2022-12-22T07:02:04.498Z,2.90
2022-12-22T07:03:05.481Z,7.80
2022-12-22T07:04:06.247Z,5.60
2022-12-22T07:05:06.914Z,3.70
2022-12-22T07:06:08.137Z,9.50
2022-12-22T07:07:08.350Z,4.40
2022-12-22T07:08:09.559Z,4.80
2022-12-22T07:09:09.702Z,8.50
2022-12-22T07:10:10.405Z,6.20
2022-12-22T07:11:11.638Z,9.40
2022-12-22T07:12:11.759Z,9.80
2022-12-22T07:13:12.463Z,6.90
2022-12-22T07:14:13.179Z,9.10
2022-12-22T07:15:13.880Z,15.70
2022-12-22T07:16:14.670Z,10.70
2022-12-22T07:17:15.355Z,20.50
2022-12-22T07:18:16.070Z,11.60
2022-12-22T07:19:16.779Z,21.80
2022-12-22T07:20:17.487Z,17.00
2022-12-22T07:21:18.620Z,19.20
2022-12-22T07:22:22.829Z,14.00
2022-12-22T07:23:20.443Z,11.70
2022-12-22T07:24:20.160Z,11.50
2022-12-22T07:25:20.866Z,18.00
2022-12-22T07:26:21.635Z,19.10
2022-12-22T07:27:22.334Z,15.70
2022-12-22T07:28:23.034Z,16.20
2022-12-22T07:29:23.763Z,16.20
2022-12-22T07:30:24.458Z,23.50
2022-12-22T07:31:25.702Z,17.60
2022-12-22T07:32:25.893Z,22.80
2022-12-22T07:33:26.620Z,30.70
2022-12-22T07:34:27.323Z,21.60
2022-12-22T07:35:28.026Z,28.80
2022-12-22T07:36:29.164Z,34.40
2022-12-22T07:37:29.345Z,38.00
2022-12-22T07:38:30.051Z,32.50
2022-12-22T07:39:30.761Z,44.50
2022-12-22T07:40:31.497Z,36.30
2022-12-22T07:41:32.638Z,43.60
2022-12-22T07:42:32.850Z,50.40
2022-12-22T07:43:33.565Z,51.20
2022-12-22T07:44:34.267Z,49.40
2022-12-22T07:45:34.985Z,37.00
2022-12-22T07:46:36.245Z,66.10
2022-12-22T07:47:36.417Z,54.00
2022-12-22T07:48:37.121Z,60.60
2022-12-22T07:49:37.824Z,66.40
2022-12-22T07:50:38.537Z,74.40
2022-12-22T07:51:39.637Z,67.30
2022-12-22T07:52:39.830Z,68.80
2022-12-22T07:53:40.561Z,76.80
2022-12-22T07:54:42.326Z,92.30
2022-12-22T07:55:42.105Z,81.60
2022-12-22T07:56:43.148Z,81.40
2022-12-22T07:57:43.792Z,86.90
2022-12-22T07:58:44.496Z,97.10
2022-12-22T07:59:45.213Z,89.00
2022-12-22T08:00:45.936Z,81.40
2022-12-22T08:01:47.321Z,80.60
2022-12-22T08:02:47.701Z,106.00
2022-12-22T08:03:48.396Z,90.30
2022-12-22T08:04:49.162Z,99.30
2022-12-22T08:05:49.831Z,109.30
2022-12-22T08:06:50.629Z,102.30
2022-12-22T08:07:51.336Z,115.30
2022-12-22T08:08:52.055Z,122.90
2022-12-22T08:09:52.761Z,135.70
2022-12-22T08:10:53.474Z,150.30
2022-12-22T08:11:54.648Z,133.20
2022-12-22T08:12:54.895Z,114.80
2022-12-22T08:14:01.035Z,129.30
2022-12-22T08:14:57.185Z,138.70
2022-12-22T08:15:56.949Z,134.60
2022-12-22T08:16:58.148Z,129.70
2022-12-22T08:17:58.331Z,141.20
2022-12-22T08:18:59.037Z,141.50
2022-12-22T08:19:59.744Z,165.80
2022-12-22T08:21:00.468Z,151.30
2022-12-22T08:22:01.643Z,164.10
2022-12-22T08:23:01.836Z,161.80
2022-12-22T08:24:02.538Z,162.70
2022-12-22T08:25:03.265Z,160.30
2022-12-22T08:26:03.961Z,160.20
2022-12-22T08:27:05.146Z,169.30
2022-12-22T08:28:05.315Z,191.20
2022-12-22T08:29:06.010Z,167.80
2022-12-22T08:30:06.718Z,185.00
2022-12-22T08:31:07.477Z,181.80
2022-12-22T08:32:08.731Z,175.30
2022-12-22T08:33:08.975Z,179.40
2022-12-22T08:34:09.687Z,188.90
2022-12-22T08:35:10.399Z,196.40
2022-12-22T08:36:11.099Z,215.80
2022-12-22T08:37:12.140Z,194.40
2022-12-22T08:38:12.341Z,191.40
2022-12-22T08:39:13.050Z,199.70
2022-12-22T08:40:13.759Z,214.30
2022-12-22T08:41:14.461Z,183.60
2022-12-22T08:42:15.754Z,189.80
2022-12-22T08:43:15.884Z,182.00
2022-12-22T08:44:16.587Z,183.30
2022-12-22T08:45:17.293Z,195.20
2022-12-22T08:46:18.035Z,171.20
2022-12-22T08:47:19.251Z,172.50
2022-12-22T08:48:19.465Z,175.50
2022-12-22T08:49:20.168Z,141.80
2022-12-22T08:50:20.874Z,148.60
2022-12-22T08:51:21.577Z,139.20
2022-12-22T08:52:22.292Z,129.70
2022-12-22T08:54:02.615Z,113.30
2022-12-22T08:54:24.597Z,133.00
2022-12-22T08:55:24.310Z,118.00
2022-12-22T08:56:25.042Z,118.50
2022-12-22T08:57:26.173Z,120.40
2022-12-22T08:58:26.314Z,124.90
2022-12-22T08:59:27.019Z,103.70
2022-12-22T09:00:27.737Z,119.00
2022-12-22T09:01:28.574Z,117.80
2022-12-22T09:02:29.839Z,120.00
2022-12-22T09:03:30.179Z,108.80
2022-12-22T09:04:30.910Z,123.90
2022-12-22T09:05:31.621Z,119.30
2022-12-22T09:06:38.531Z,115.00
2022-12-22T09:07:33.938Z,110.10
2022-12-22T09:08:33.642Z,126.30
2022-12-22T09:09:34.475Z,122.10
2022-12-22T09:10:35.192Z,122.20
2022-12-22T09:11:35.902Z,104.40
2022-12-22T09:12:36.609Z,133.10
2022-12-22T09:13:37.268Z,135.70
2022-12-22T09:14:37.982Z,153.70
2022-12-22T09:15:38.683Z,145.40
2022-12-22T09:16:39.549Z,142.00
2022-12-22T09:17:40.650Z,168.50
2022-12-22T09:18:40.837Z,151.60
2022-12-22T09:19:41.540Z,162.30
2022-12-22T09:20:42.259Z,159.40
2022-12-22T09:21:42.957Z,177.80
2022-12-22T09:22:44.130Z,154.80
2022-12-22T09:23:44.361Z,176.20
2022-12-22T09:24:45.109Z,166.80
2022-12-22T09:25:45.816Z,180.80
2022-12-22T09:26:46.533Z,214.80
2022-12-22T09:27:47.653Z,198.40
2022-12-22T09:28:50.575Z,203.30
2022-12-22T09:29:48.547Z,190.10
2022-12-22T09:30:49.258Z,176.60
2022-12-22T09:31:49.997Z,191.50
2022-12-22T09:32:51.660Z,202.50
2022-12-22T09:33:51.369Z,210.20
2022-12-22T09:34:52.066Z,203.20
2022-12-22T09:35:52.801Z,190.10
2022-12-22T09:36:53.493Z,201.70
2022-12-22T09:37:54.642Z,221.60
2022-12-22T09:38:54.849Z,229.50
2022-12-22T09:39:55.586Z,210.40
2022-12-22T09:40:56.274Z,194.80
2022-12-22T09:41:56.983Z,210.50
2022-12-22T09:42:58.151Z,230.40
2022-12-22T09:43:58.315Z,236.40
2022-12-22T09:44:59.029Z,194.60
2022-12-22T09:45:59.772Z,213.80
2022-12-22T09:47:00.486Z,191.90
2022-12-22T09:48:01.669Z,192.80
2022-12-22T09:49:01.858Z,204.10
2022-12-22T09:50:02.599Z,195.40
2022-12-22T09:51:03.311Z,212.60
2022-12-22T09:52:04.013Z,221.60
2022-12-22T09:53:04.736Z,187.10
2022-12-22T09:54:05.441Z,183.60
2022-12-22T09:55:06.193Z,185.30
2022-12-22T09:56:06.863Z,177.90
2022-12-22T09:57:07.564Z,161.50
2022-12-22T09:58:11.507Z,164.00
2022-12-22T09:59:09.125Z,166.60
2022-12-22T10:00:09.828Z,135.70
2022-12-22T10:01:10.597Z,149.30
2022-12-22T10:02:11.351Z,158.80
2022-12-22T10:03:12.097Z,155.10
2022-12-22T10:04:12.790Z,145.70
2022-12-22T10:05:13.483Z,154.50
2022-12-22T10:06:14.191Z,162.30
2022-12-22T10:07:14.898Z,151.90
2022-12-22T10:08:15.639Z,156.80
2022-12-22T10:09:46.299Z,142.30
2022-12-22T10:10:17.945Z,148.50
2022-12-22T10:11:17.667Z,152.10
2022-12-22T10:12:18.368Z,142.30
2022-12-22T10:13:19.094Z,159.10
2022-12-22T10:14:19.739Z,183.30
2022-12-22T10:15:22.168Z,188.80
2022-12-22T10:16:20.951Z,198.90
2022-12-22T10:17:21.643Z,179.60
2022-12-22T10:18:22.383Z,192.10
2022-12-22T10:19:23.071Z,180.00
2022-12-22T10:20:23.823Z,175.40
2022-12-22T10:21:24.576Z,148.60
2022-12-22T10:22:25.273Z,142.40
2022-12-22T10:23:25.990Z,127.60
2022-12-22T10:24:26.709Z,143.90
2022-12-22T10:25:27.399Z,138.00
2022-12-22T10:26:30.890Z,139.30
2022-12-22T10:27:29.390Z,128.50
2022-12-22T10:28:29.656Z,138.00
2022-12-22T10:29:29.823Z,128.10
2022-12-22T10:30:30.529Z,142.10
2022-12-22T10:31:31.417Z,135.40
2022-12-22T10:32:32.082Z,142.50
2022-12-22T10:33:32.810Z,130.00
2022-12-22T10:34:33.495Z,155.30
2022-12-22T10:35:34.199Z,135.10
2022-12-22T10:36:34.920Z,145.50
2022-12-22T10:37:35.614Z,132.80
2022-12-22T10:38:36.325Z,159.70
2022-12-22T10:39:37.126Z,149.60
2022-12-22T10:40:37.802Z,164.20
2022-12-22T10:41:38.583Z,181.00
2022-12-22T10:42:39.427Z,175.60
2022-12-22T10:43:40.677Z,162.20
2022-12-22T10:44:40.827Z,156.80
2022-12-22T10:45:41.575Z,166.30
2022-12-22T10:46:42.244Z,166.40
2022-12-22T10:47:42.956Z,176.20
2022-12-22T10:48:43.693Z,186.60
2022-12-22T10:49:44.420Z,196.80
2022-12-22T10:50:45.126Z,172.10
2022-12-22T10:51:45.835Z,175.10
2022-12-22T10:52:46.614Z,187.10
2022-12-22T10:53:47.688Z,179.30
2022-12-22T10:54:47.854Z,184.60
2022-12-22T10:55:48.557Z,205.90
2022-12-22T10:56:49.273Z,191.30
2022-12-22T10:57:50.019Z,204.10
2022-12-22T10:58:50.719Z,193.70
2022-12-22T10:59:51.366Z,203.40
2022-12-22T11:00:52.083Z,190.20
2022-12-22T11:01:52.912Z,197.80
2022-12-22T11:02:53.806Z,187.70
2022-12-22T11:03:54.695Z,176.00
2022-12-22T11:04:55.379Z,207.30
2022-12-22T11:05:56.094Z,179.40
2022-12-22T11:06:56.791Z,217.30
2022-12-22T11:07:57.570Z,188.10
2022-12-22T11:09:31.208Z,197.30
2022-12-22T11:09:59.772Z,176.10
2022-12-22T11:10:59.482Z,213.70
2022-12-22T11:12:00.191Z,195.90
2022-12-22T11:13:00.908Z,224.90
2022-12-22T11:14:01.635Z,204.30
2022-12-22T11:15:02.328Z,194.10
2022-12-22T11:16:03.031Z,201.50
2022-12-22T11:17:03.819Z,173.90
2022-12-22T11:18:04.570Z,187.30
2022-12-22T11:19:05.668Z,189.40
2022-12-22T11:20:05.855Z,190.90
2022-12-22T11:21:06.579Z,218.60
2022-12-22T11:22:07.294Z,199.60
2022-12-22T11:23:08.010Z,207.30
2022-12-22T11:24:09.147Z,225.90
2022-12-22T11:25:09.500Z,241.10
2022-12-22T11:26:10.169Z,237.80
2022-12-22T11:27:10.878Z,219.50
2022-12-22T11:28:11.605Z,195.70
2022-12-22T11:29:12.663Z,185.50
2022-12-22T11:30:12.822Z,181.40
2022-12-22T11:31:13.606Z,165.10
2022-12-22T11:32:14.292Z,169.40
2022-12-22T11:33:14.969Z,161.10
2022-12-22T11:34:21.095Z,177.40
2022-12-22T11:35:17.252Z,177.70
2022-12-22T11:36:16.974Z,178.30
2022-12-22T11:37:17.682Z,188.30
2022-12-22T11:38:18.386Z,200.70
2022-12-22T11:39:19.154Z,188.70
2022-12-22T11:40:19.864Z,204.90
2022-12-22T11:41:20.574Z,200.90
2022-12-22T11:42:21.277Z,180.90
2022-12-22T11:43:21.983Z,178.40
2022-12-22T11:44:23.185Z,175.30
2022-12-22T11:45:23.353Z,195.90
2022-12-22T11:46:24.211Z,190.80
2022-12-22T11:47:24.890Z,174.50
2022-12-22T11:48:25.577Z,178.20
2022-12-22T11:49:26.329Z,181.40
2022-12-22T11:50:58.200Z,205.10
2022-12-22T11:51:29.284Z,195.80
2022-12-22T11:52:28.503Z,213.30
2022-12-22T11:53:29.202Z,185.30
2022-12-22T11:54:29.796Z,184.80
2022-12-22T11:55:30.485Z,212.20
2022-12-22T11:56:31.195Z,176.20
2022-12-22T11:57:31.901Z,199.20
2022-12-22T11:58:32.429Z,190.90
2022-12-22T11:59:33.147Z,209.90
2022-12-22T12:01:11.881Z,199.00
2022-12-22T12:01:35.489Z,198.80
2022-12-22T12:02:35.305Z,175.40
2022-12-22T12:03:36.084Z,181.80
2022-12-22T12:04:37.251Z,183.00
2022-12-22T12:05:37.492Z,173.60
2022-12-22T12:06:38.186Z,193.50
2022-12-22T12:07:38.896Z,195.90
2022-12-22T12:08:39.619Z,215.10
2022-12-22T12:09:40.652Z,188.50
2022-12-22T12:10:40.863Z,218.90
2022-12-22T12:11:41.577Z,203.10
2022-12-22T12:12:42.287Z,214.50
2022-12-22T12:13:42.992Z,221.80
2022-12-22T12:14:44.176Z,231.00
2022-12-22T12:15:44.416Z,243.70
2022-12-22T12:16:45.080Z,211.90
2022-12-22T12:17:45.793Z,200.60
2022-12-22T12:18:46.498Z,204.50
2022-12-22T12:19:47.684Z,180.30
2022-12-22T12:20:47.877Z,179.90
2022-12-22T12:21:48.582Z,193.70
2022-12-22T12:22:49.287Z,172.50
2022-12-22T12:23:50.022Z,167.00
2022-12-22T12:24:51.158Z,166.50
2022-12-22T12:25:51.361Z,141.00
2022-12-22T12:26:52.067Z,140.40
2022-12-22T12:27:52.779Z,141.90
2022-12-22T12:28:53.503Z,148.90
2022-12-22T12:30:13.607Z,157.40
2022-12-22T12:30:55.894Z,158.10
2022-12-22T12:31:55.673Z,148.90
2022-12-22T12:32:56.384Z,165.50
2022-12-22T12:33:57.089Z,162.90
2022-12-22T12:34:58.184Z,166.20
2022-12-22T12:35:58.376Z,161.30
2022-12-22T12:36:59.079Z,181.50
2022-12-22T12:37:59.788Z,153.40
2022-12-22T12:39:09.120Z,131.40
2022-12-22T12:40:02.156Z,119.30
2022-12-22T12:41:01.865Z,104.30
2022-12-22T12:42:02.575Z,102.80
2022-12-22T12:43:03.285Z,103.70
2022-12-22T12:44:04.016Z,103.00
2022-12-22T12:45:05.170Z,96.80
2022-12-22T12:46:05.486Z,104.80
2022-12-22T12:47:06.332Z,107.30
2022-12-22T12:48:07.058Z,104.30
2022-12-22T12:49:07.766Z,82.70
2022-12-22T12:50:08.708Z,92.90
2022-12-22T12:51:09.380Z,88.30
2022-12-22T12:52:10.093Z,100.70
2022-12-22T12:53:10.797Z,103.50
2022-12-22T12:54:11.501Z,91.50
2022-12-22T12:55:17.142Z,74.80
2022-12-22T12:56:13.764Z,72.80
2022-12-22T12:57:13.465Z,77.30
2022-12-22T12:58:14.166Z,76.60
2022-12-22T12:59:14.877Z,84.00
2022-12-22T13:00:15.614Z,87.10
2022-12-22T13:01:16.340Z,89.40